sensor_id;sensor_type;location;lat;lon;timestamp;temperature;humidity
49124;DHT22;48506;48.202;16.274;2022-12-28T00:01:30;2.50;97.30
49124;DHT22;48506;48.202;16.274;2022-12-28T00:03:59;2.50;97.30
49124;DHT22;48506;48.202;16.274;2022-12-28T00:06:25;2.40;97.40
49124;DHT22;48506;48.202;16.274;2022-12-28T00:08:52;2.40;97.30
49124;DHT22;48506;48.202;16.274;2022-12-28T00:11:20;2.50;97.40
49124;DHT22;48506;48.202;16.274;2022-12-28T00:13:46;2.40;97.30
49124;DHT22;48506;48.202;16.274;2022-12-28T00:16:24;2.50;97.30
49124;DHT22;48506;48.202;16.274;2022-12-28T00:18:51;2.40;97.30
49124;DHT22;48506;48.202;16.274;2022-12-28T00:21:17;2.40;97.30
49124;DHT22;48506;48.202;16.274;2022-12-28T00:23:43;2.50;97.40
49124;DHT22;48506;48.202;16.274;2022-12-28T00:26:13;2.50;97.60
49124;DHT22;48506;48.202;16.274;2022-12-28T00:28:39;2.50;97.40
49124;DHT22;48506;48.202;16.274;2022-12-28T00:31:05;2.50;97.30
49124;DHT22;48506;48.202;16.274;2022-12-28T00:33:32;2.50;97.10
49124;DHT22;48506;48.202;16.274;2022-12-28T00:36:00;2.40;97.10
49124;DHT22;48506;48.202;16.274;2022-12-28T00:38:28;2.30;97.10
49124;DHT22;48506;48.202;16.274;2022-12-28T00:40:58;2.30;97.20
49124;DHT22;48506;48.202;16.274;2022-12-28T00:43:24;2.30;97.20
49124;DHT22;48506;48.202;16.274;2022-12-28T00:45:50;2.30;97.10
49124;DHT22;48506;48.202;16.274;2022-12-28T00:48:16;2.20;97.20
49124;DHT22;48506;48.202;16.274;2022-12-28T00:50:43;2.20;97.20
49124;DHT22;48506;48.202;16.274;2022-12-28T00:53:09;2.10;97.20
49124;DHT22;48506;48.202;16.274;2022-12-28T00:55:36;2.10;97.20
49124;DHT22;48506;48.202;16.274;2022-12-28T00:58:03;2.10;97.40
49124;DHT22;48506;48.202;16.274;2022-12-28T01:00:29;2.00;97.10
49124;DHT22;48506;48.202;16.274;2022-12-28T01:02:56;2.00;97.10
49124;DHT22;48506;48.202;16.274;2022-12-28T01:05:22;1.90;97.30
49124;DHT22;48506;48.202;16.274;2022-12-28T01:07:49;1.90;97.30
49124;DHT22;48506;48.202;16.274;2022-12-28T01:10:15;1.80;97.30
49124;DHT22;48506;48.202;16.274;2022-12-28T01:12:42;1.80;97.60
49124;DHT22;48506;48.202;16.274;2022-12-28T01:15:10;1.80;97.70
49124;DHT22;48506;48.202;16.274;2022-12-28T01:17:36;1.80;97.60
49124;DHT22;48506;48.202;16.274;2022-12-28T01:20:03;1.80;97.70
49124;DHT22;48506;48.202;16.274;2022-12-28T01:22:29;1.80;97.90
49124;DHT22;48506;48.202;16.274;2022-12-28T01:24:55;1.80;97.80
49124;DHT22;48506;48.202;16.274;2022-12-28T01:27:20;1.80;97.90
49124;DHT22;48506;48.202;16.274;2022-12-28T01:29:46;1.80;98.10
49124;DHT22;48506;48.202;16.274;2022-12-28T01:32:12;1.80;98.00
49124;DHT22;48506;48.202;16.274;2022-12-28T01:34:38;1.70;98.00
49124;DHT22;48506;48.202;16.274;2022-12-28T01:37:04;1.70;98.10
49124;DHT22;48506;48.202;16.274;2022-12-28T01:39:30;1.70;98.00
49124;DHT22;48506;48.202;16.274;2022-12-28T01:41:56;1.70;98.10
49124;DHT22;48506;48.202;16.274;2022-12-28T01:47:03;1.70;98.30
49124;DHT22;48506;48.202;16.274;2022-12-28T01:49:37;1.80;98.20
49124;DHT22;48506;48.202;16.274;2022-12-28T01:57:55;1.80;98.20
49124;DHT22;48506;48.202;16.274;2022-12-28T02:00:24;1.80;98.10
49124;DHT22;48506;48.202;16.274;2022-12-28T02:03:02;1.80;98.10
49124;DHT22;48506;48.202;16.274;2022-12-28T02:05:35;1.80;98.20
49124;DHT22;48506;48.202;16.274;2022-12-28T02:10:41;1.80;98.30
49124;DHT22;48506;48.202;16.274;2022-12-28T02:13:08;1.80;98.40
49124;DHT22;48506;48.202;16.274;2022-12-28T02:15:34;1.80;98.50
49124;DHT22;48506;48.202;16.274;2022-12-28T02:18:01;1.90;98.60
49124;DHT22;48506;48.202;16.274;2022-12-28T02:20:36;1.90;98.50
49124;DHT22;48506;48.202;16.274;2022-12-28T02:34:02;1.70;98.10
49124;DHT22;48506;48.202;16.274;2022-12-28T02:36:38;1.70;98.10
49124;DHT22;48506;48.202;16.274;2022-12-28T02:39:14;1.70;98.10
49124;DHT22;48506;48.202;16.274;2022-12-28T02:41:44;1.70;98.20
49124;DHT22;48506;48.202;16.274;2022-12-28T02:44:11;1.60;98.00
49124;DHT22;48506;48.202;16.274;2022-12-28T02:46:58;1.60;97.90
49124;DHT22;48506;48.202;16.274;2022-12-28T02:49:43;1.60;98.00
49124;DHT22;48506;48.202;16.274;2022-12-28T02:58:29;1.50;98.00
49124;DHT22;48506;48.202;16.274;2022-12-28T03:12:49;1.40;98.00
49124;DHT22;48506;48.202;16.274;2022-12-28T03:15:20;1.40;98.00
49124;DHT22;48506;48.202;16.274;2022-12-28T03:18:14;1.30;98.00
49124;DHT22;48506;48.202;16.274;2022-12-28T03:21:03;1.30;98.10
49124;DHT22;48506;48.202;16.274;2022-12-28T03:23:52;1.30;98.20
49124;DHT22;48506;48.202;16.274;2022-12-28T03:26:42;1.20;98.20
49124;DHT22;48506;48.202;16.274;2022-12-28T03:29:28;1.20;98.20
49124;DHT22;48506;48.202;16.274;2022-12-28T03:32:14;1.20;98.10
49124;DHT22;48506;48.202;16.274;2022-12-28T03:34:40;1.10;98.20
49124;DHT22;48506;48.202;16.274;2022-12-28T03:37:24;1.10;98.40
49124;DHT22;48506;48.202;16.274;2022-12-28T03:42:44;1.10;98.50
49124;DHT22;48506;48.202;16.274;2022-12-28T03:45:48;1.10;98.50
49124;DHT22;48506;48.202;16.274;2022-12-28T03:48:16;1.10;98.70
49124;DHT22;48506;48.202;16.274;2022-12-28T03:50:45;1.10;98.60
49124;DHT22;48506;48.202;16.274;2022-12-28T03:53:13;1.10;98.50
49124;DHT22;48506;48.202;16.274;2022-12-28T03:55:40;1.10;98.40
49124;DHT22;48506;48.202;16.274;2022-12-28T03:58:07;1.10;98.40
49124;DHT22;48506;48.202;16.274;2022-12-28T04:00:33;1.10;98.50
49124;DHT22;48506;48.202;16.274;2022-12-28T04:02:59;1.10;98.40
49124;DHT22;48506;48.202;16.274;2022-12-28T04:05:26;1.10;98.30
49124;DHT22;48506;48.202;16.274;2022-12-28T04:07:51;1.00;98.40
49124;DHT22;48506;48.202;16.274;2022-12-28T04:10:17;1.00;98.40
49124;DHT22;48506;48.202;16.274;2022-12-28T04:12:43;1.00;98.40
49124;DHT22;48506;48.202;16.274;2022-12-28T04:15:09;1.00;98.50
49124;DHT22;48506;48.202;16.274;2022-12-28T04:17:35;1.00;98.50
49124;DHT22;48506;48.202;16.274;2022-12-28T04:20:02;1.00;98.50
49124;DHT22;48506;48.202;16.274;2022-12-28T04:22:28;1.00;98.40
49124;DHT22;48506;48.202;16.274;2022-12-28T04:24:53;1.00;98.30
49124;DHT22;48506;48.202;16.274;2022-12-28T04:27:19;1.00;98.30
49124;DHT22;48506;48.202;16.274;2022-12-28T04:29:49;1.00;98.40
49124;DHT22;48506;48.202;16.274;2022-12-28T04:32:15;1.00;98.50
49124;DHT22;48506;48.202;16.274;2022-12-28T04:34:41;1.00;98.50
49124;DHT22;48506;48.202;16.274;2022-12-28T04:37:07;1.00;98.50
49124;DHT22;48506;48.202;16.274;2022-12-28T04:39:32;1.00;98.60
49124;DHT22;48506;48.202;16.274;2022-12-28T04:41:58;0.90;98.50
49124;DHT22;48506;48.202;16.274;2022-12-28T04:44:24;1.00;98.60
49124;DHT22;48506;48.202;16.274;2022-12-28T04:46:50;0.90;98.60
49124;DHT22;48506;48.202;16.274;2022-12-28T04:49:16;1.00;98.70
49124;DHT22;48506;48.202;16.274;2022-12-28T04:51:42;1.00;98.60
49124;DHT22;48506;48.202;16.274;2022-12-28T04:54:11;1.00;98.50
49124;DHT22;48506;48.202;16.274;2022-12-28T04:56:37;1.00;98.40
49124;DHT22;48506;48.202;16.274;2022-12-28T04:59:04;1.00;98.40
49124;DHT22;48506;48.202;16.274;2022-12-28T05:01:30;0.90;98.50
49124;DHT22;48506;48.202;16.274;2022-12-28T05:03:56;0.90;98.60
49124;DHT22;48506;48.202;16.274;2022-12-28T05:06:22;1.00;98.70
49124;DHT22;48506;48.202;16.274;2022-12-28T05:08:49;1.00;98.50
49124;DHT22;48506;48.202;16.274;2022-12-28T05:11:20;0.90;98.50
49124;DHT22;48506;48.202;16.274;2022-12-28T05:13:46;0.90;98.50
49124;DHT22;48506;48.202;16.274;2022-12-28T05:16:15;1.00;98.50
49124;DHT22;48506;48.202;16.274;2022-12-28T05:18:42;0.90;98.50
49124;DHT22;48506;48.202;16.274;2022-12-28T05:23:38;1.00;98.50
49124;DHT22;48506;48.202;16.274;2022-12-28T05:26:05;0.90;98.60
49124;DHT22;48506;48.202;16.274;2022-12-28T05:28:32;0.90;98.50
49124;DHT22;48506;48.202;16.274;2022-12-28T05:31:03;0.90;98.50
49124;DHT22;48506;48.202;16.274;2022-12-28T05:33:31;0.90;98.50
49124;DHT22;48506;48.202;16.274;2022-12-28T05:36:08;0.90;98.60
49124;DHT22;48506;48.202;16.274;2022-12-28T05:38:35;0.90;98.50
49124;DHT22;48506;48.202;16.274;2022-12-28T05:41:16;0.90;98.60
49124;DHT22;48506;48.202;16.274;2022-12-28T05:43:42;0.90;98.50
49124;DHT22;48506;48.202;16.274;2022-12-28T05:46:11;0.90;98.40
49124;DHT22;48506;48.202;16.274;2022-12-28T05:48:39;0.90;98.50
49124;DHT22;48506;48.202;16.274;2022-12-28T05:51:10;0.90;98.40
49124;DHT22;48506;48.202;16.274;2022-12-28T05:53:38;0.90;98.40
49124;DHT22;48506;48.202;16.274;2022-12-28T05:56:24;0.80;98.30
49124;DHT22;48506;48.202;16.274;2022-12-28T05:59:00;0.80;98.30
49124;DHT22;48506;48.202;16.274;2022-12-28T06:01:29;0.80;98.50
49124;DHT22;48506;48.202;16.274;2022-12-28T06:04:03;0.80;98.50
49124;DHT22;48506;48.202;16.274;2022-12-28T06:06:30;0.80;98.50
49124;DHT22;48506;48.202;16.274;2022-12-28T06:08:56;0.80;98.60
49124;DHT22;48506;48.202;16.274;2022-12-28T06:11:24;0.80;98.60
49124;DHT22;48506;48.202;16.274;2022-12-28T06:13:50;0.80;98.70
49124;DHT22;48506;48.202;16.274;2022-12-28T06:16:24;0.80;98.70
49124;DHT22;48506;48.202;16.274;2022-12-28T06:18:50;0.80;98.70
49124;DHT22;48506;48.202;16.274;2022-12-28T06:21:22;0.80;98.70
49124;DHT22;48506;48.202;16.274;2022-12-28T06:23:49;0.70;98.80
49124;DHT22;48506;48.202;16.274;2022-12-28T06:26:18;0.70;98.80
49124;DHT22;48506;48.202;16.274;2022-12-28T06:28:45;0.70;98.90
49124;DHT22;48506;48.202;16.274;2022-12-28T06:31:23;0.70;99.00
49124;DHT22;48506;48.202;16.274;2022-12-28T06:33:50;0.70;99.00
49124;DHT22;48506;48.202;16.274;2022-12-28T06:36:22;0.80;99.10
49124;DHT22;48506;48.202;16.274;2022-12-28T06:38:49;0.80;99.10
49124;DHT22;48506;48.202;16.274;2022-12-28T06:41:17;0.80;99.00
49124;DHT22;48506;48.202;16.274;2022-12-28T06:43:44;0.90;99.10
49124;DHT22;48506;48.202;16.274;2022-12-28T06:46:11;0.90;99.20
49124;DHT22;48506;48.202;16.274;2022-12-28T06:48:38;0.90;99.20
49124;DHT22;48506;48.202;16.274;2022-12-28T06:51:27;1.00;99.30
49124;DHT22;48506;48.202;16.274;2022-12-28T06:53:52;1.00;99.20
49124;DHT22;48506;48.202;16.274;2022-12-28T06:56:26;1.00;99.40
49124;DHT22;48506;48.202;16.274;2022-12-28T06:58:53;1.10;99.50
49124;DHT22;48506;48.202;16.274;2022-12-28T07:01:25;1.20;99.40
49124;DHT22;48506;48.202;16.274;2022-12-28T07:03:54;1.20;99.40
49124;DHT22;48506;48.202;16.274;2022-12-28T07:06:24;1.30;99.40
49124;DHT22;48506;48.202;16.274;2022-12-28T07:08:50;1.30;99.30
49124;DHT22;48506;48.202;16.274;2022-12-28T07:11:20;1.40;99.20
49124;DHT22;48506;48.202;16.274;2022-12-28T07:13:47;1.50;99.20
49124;DHT22;48506;48.202;16.274;2022-12-28T07:16:16;1.50;99.20
49124;DHT22;48506;48.202;16.274;2022-12-28T07:18:44;1.60;99.10
49124;DHT22;48506;48.202;16.274;2022-12-28T07:21:13;1.70;99.00
49124;DHT22;48506;48.202;16.274;2022-12-28T07:23:39;1.70;98.90
49124;DHT22;48506;48.202;16.274;2022-12-28T07:26:08;1.80;98.80
49124;DHT22;48506;48.202;16.274;2022-12-28T07:28:37;1.70;98.70
49124;DHT22;48506;48.202;16.274;2022-12-28T07:31:08;1.80;98.70
49124;DHT22;48506;48.202;16.274;2022-12-28T07:33:35;1.70;98.50
49124;DHT22;48506;48.202;16.274;2022-12-28T07:36:02;1.70;98.50
49124;DHT22;48506;48.202;16.274;2022-12-28T07:38:28;1.60;98.50
49124;DHT22;48506;48.202;16.274;2022-12-28T07:41:21;1.60;98.60
49124;DHT22;48506;48.202;16.274;2022-12-28T07:43:48;1.70;98.50
49124;DHT22;48506;48.202;16.274;2022-12-28T07:46:18;1.60;98.40
49124;DHT22;48506;48.202;16.274;2022-12-28T07:48:45;1.60;98.40
49124;DHT22;48506;48.202;16.274;2022-12-28T07:51:16;1.60;98.50
49124;DHT22;48506;48.202;16.274;2022-12-28T07:53:44;1.60;98.60
49124;DHT22;48506;48.202;16.274;2022-12-28T07:56:12;1.70;98.60
49124;DHT22;48506;48.202;16.274;2022-12-28T07:58:38;1.80;98.80
49124;DHT22;48506;48.202;16.274;2022-12-28T08:01:15;1.90;98.80
49124;DHT22;48506;48.202;16.274;2022-12-28T08:03:42;2.00;98.70
49124;DHT22;48506;48.202;16.274;2022-12-28T08:06:11;2.10;98.60
49124;DHT22;48506;48.202;16.274;2022-12-28T08:08:41;2.10;98.50
49124;DHT22;48506;48.202;16.274;2022-12-28T08:11:13;2.10;98.30
49124;DHT22;48506;48.202;16.274;2022-12-28T08:13:43;2.10;98.30
49124;DHT22;48506;48.202;16.274;2022-12-28T08:16:11;2.10;98.40
49124;DHT22;48506;48.202;16.274;2022-12-28T08:18:38;2.10;98.40
49124;DHT22;48506;48.202;16.274;2022-12-28T08:21:12;2.20;98.40
49124;DHT22;48506;48.202;16.274;2022-12-28T08:23:38;2.20;98.30
49124;DHT22;48506;48.202;16.274;2022-12-28T08:26:16;2.30;98.60
49124;DHT22;48506;48.202;16.274;2022-12-28T08:28:45;2.30;98.50
49124;DHT22;48506;48.202;16.274;2022-12-28T08:31:14;2.40;98.50
49124;DHT22;48506;48.202;16.274;2022-12-28T08:33:43;2.50;98.60
49124;DHT22;48506;48.202;16.274;2022-12-28T08:36:10;2.50;98.50
49124;DHT22;48506;48.202;16.274;2022-12-28T08:38:38;2.60;98.30
49124;DHT22;48506;48.202;16.274;2022-12-28T08:41:07;2.70;98.20
49124;DHT22;48506;48.202;16.274;2022-12-28T08:43:35;2.60;98.10
49124;DHT22;48506;48.202;16.274;2022-12-28T08:46:07;2.60;98.20
49124;DHT22;48506;48.202;16.274;2022-12-28T08:48:33;2.60;98.20
49124;DHT22;48506;48.202;16.274;2022-12-28T08:51:08;2.70;98.30
49124;DHT22;48506;48.202;16.274;2022-12-28T08:53:35;2.70;98.10
49124;DHT22;48506;48.202;16.274;2022-12-28T08:56:10;2.80;97.90
49124;DHT22;48506;48.202;16.274;2022-12-28T08:58:38;2.80;97.90
49124;DHT22;48506;48.202;16.274;2022-12-28T09:01:29;2.80;97.90
49124;DHT22;48506;48.202;16.274;2022-12-28T09:03:57;2.90;98.10
49124;DHT22;48506;48.202;16.274;2022-12-28T09:06:26;3.10;98.10
49124;DHT22;48506;48.202;16.274;2022-12-28T09:08:54;3.40;97.60
49124;DHT22;48506;48.202;16.274;2022-12-28T09:11:21;3.50;97.50
49124;DHT22;48506;48.202;16.274;2022-12-28T09:13:47;3.70;97.60
49124;DHT22;48506;48.202;16.274;2022-12-28T09:16:16;3.90;97.60
49124;DHT22;48506;48.202;16.274;2022-12-28T09:18:44;4.30;97.40
49124;DHT22;48506;48.202;16.274;2022-12-28T09:21:17;4.50;97.10
49124;DHT22;48506;48.202;16.274;2022-12-28T09:23:44;4.80;96.70
49124;DHT22;48506;48.202;16.274;2022-12-28T09:26:16;5.10;96.10
49124;DHT22;48506;48.202;16.274;2022-12-28T09:28:50;5.30;95.60
49124;DHT22;48506;48.202;16.274;2022-12-28T09:31:18;5.50;95.80
49124;DHT22;48506;48.202;16.274;2022-12-28T09:33:45;5.60;95.30
49124;DHT22;48506;48.202;16.274;2022-12-28T09:36:32;5.70;94.90
49124;DHT22;48506;48.202;16.274;2022-12-28T09:39:00;5.70;94.90
49124;DHT22;48506;48.202;16.274;2022-12-28T09:53:14;6.40;93.70
49124;DHT22;48506;48.202;16.274;2022-12-28T09:58:41;6.70;93.10
49124;DHT22;48506;48.202;16.274;2022-12-28T10:01:12;6.70;92.40
49124;DHT22;48506;48.202;16.274;2022-12-28T10:03:39;6.80;92.40
49124;DHT22;48506;48.202;16.274;2022-12-28T10:06:12;6.80;92.00
49124;DHT22;48506;48.202;16.274;2022-12-28T10:08:50;6.90;92.40
49124;DHT22;48506;48.202;16.274;2022-12-28T10:11:23;7.00;92.50
49124;DHT22;48506;48.202;16.274;2022-12-28T10:13:55;7.10;92.50
49124;DHT22;48506;48.202;16.274;2022-12-28T10:16:24;7.10;92.50
49124;DHT22;48506;48.202;16.274;2022-12-28T10:18:50;7.20;92.40
49124;DHT22;48506;48.202;16.274;2022-12-28T10:21:17;7.20;92.20
49124;DHT22;48506;48.202;16.274;2022-12-28T10:23:48;7.20;92.20
49124;DHT22;48506;48.202;16.274;2022-12-28T10:26:17;7.20;92.20
49124;DHT22;48506;48.202;16.274;2022-12-28T10:28:51;7.40;92.60
49124;DHT22;48506;48.202;16.274;2022-12-28T10:31:38;7.60;92.10
49124;DHT22;48506;48.202;16.274;2022-12-28T10:34:14;7.80;92.00
49124;DHT22;48506;48.202;16.274;2022-12-28T10:36:41;7.90;91.70
49124;DHT22;48506;48.202;16.274;2022-12-28T10:39:22;8.00;91.70
49124;DHT22;48506;48.202;16.274;2022-12-28T10:41:49;8.10;91.50
49124;DHT22;48506;48.202;16.274;2022-12-28T10:44:28;8.20;91.40
49124;DHT22;48506;48.202;16.274;2022-12-28T10:47:00;8.20;91.30
49124;DHT22;48506;48.202;16.274;2022-12-28T10:49:30;8.30;91.40
49124;DHT22;48506;48.202;16.274;2022-12-28T10:52:01;8.30;91.30
49124;DHT22;48506;48.202;16.274;2022-12-28T10:54:32;8.50;91.50
49124;DHT22;48506;48.202;16.274;2022-12-28T10:56:59;8.70;91.30
49124;DHT22;48506;48.202;16.274;2022-12-28T10:59:28;9.00;90.80
49124;DHT22;48506;48.202;16.274;2022-12-28T11:04:58;9.40;90.80
49124;DHT22;48506;48.202;16.274;2022-12-28T11:07:38;9.50;90.10
49124;DHT22;48506;48.202;16.274;2022-12-28T11:10:24;9.50;90.30
49124;DHT22;48506;48.202;16.274;2022-12-28T11:12:56;9.60;90.20
49124;DHT22;48506;48.202;16.274;2022-12-28T11:15:28;9.60;90.30
49124;DHT22;48506;48.202;16.274;2022-12-28T11:18:15;9.60;90.10
49124;DHT22;48506;48.202;16.274;2022-12-28T11:20:44;9.50;89.90
49124;DHT22;48506;48.202;16.274;2022-12-28T11:23:19;9.50;89.90
49124;DHT22;48506;48.202;16.274;2022-12-28T11:25:46;9.40;89.90
49124;DHT22;48506;48.202;16.274;2022-12-28T11:28:18;9.30;89.40
49124;DHT22;48506;48.202;16.274;2022-12-28T11:30:45;9.20;88.90
49124;DHT22;48506;48.202;16.274;2022-12-28T11:33:38;9.20;89.30
49124;DHT22;48506;48.202;16.274;2022-12-28T11:36:09;9.20;89.60
49124;DHT22;48506;48.202;16.274;2022-12-28T11:38:47;9.30;89.40
49124;DHT22;48506;48.202;16.274;2022-12-28T11:43:58;9.20;89.60
49124;DHT22;48506;48.202;16.274;2022-12-28T11:49:04;9.20;89.30
49124;DHT22;48506;48.202;16.274;2022-12-28T11:54:59;9.30;89.00
49124;DHT22;48506;48.202;16.274;2022-12-28T11:57:38;9.40;89.40
49124;DHT22;48506;48.202;16.274;2022-12-28T12:02:53;9.40;88.60
49124;DHT22;48506;48.202;16.274;2022-12-28T12:10:43;9.70;86.90
49124;DHT22;48506;48.202;16.274;2022-12-28T12:16:02;9.80;86.10
49124;DHT22;48506;48.202;16.274;2022-12-28T12:18:50;9.90;86.00
49124;DHT22;48506;48.202;16.274;2022-12-28T12:24:02;10.90;85.20
49124;DHT22;48506;48.202;16.274;2022-12-28T12:26:37;11.50;83.70
49124;DHT22;48506;48.202;16.274;2022-12-28T12:29:16;11.70;80.90
49124;DHT22;48506;48.202;16.274;2022-12-28T12:31:46;11.50;80.50
49124;DHT22;48506;48.202;16.274;2022-12-28T12:34:26;11.50;81.70
49124;DHT22;48506;48.202;16.274;2022-12-28T12:40:13;12.10;81.50
49124;DHT22;48506;48.202;16.274;2022-12-28T12:45:31;13.30;79.70
49124;DHT22;48506;48.202;16.274;2022-12-28T12:51:08;14.90;72.50
49124;DHT22;48506;48.202;16.274;2022-12-28T12:54:00;15.50;72.70
49124;DHT22;48506;48.202;16.274;2022-12-28T13:04:41;17.90;64.60
49124;DHT22;48506;48.202;16.274;2022-12-28T13:07:24;17.70;63.30
49124;DHT22;48506;48.202;16.274;2022-12-28T13:09:58;16.80;62.80
49124;DHT22;48506;48.202;16.274;2022-12-28T13:12:26;16.60;64.70
49124;DHT22;48506;48.202;16.274;2022-12-28T13:14:59;16.90;62.90
49124;DHT22;48506;48.202;16.274;2022-12-28T13:17:28;16.30;62.70
49124;DHT22;48506;48.202;16.274;2022-12-28T13:20:29;15.40;63.80
49124;DHT22;48506;48.202;16.274;2022-12-28T13:22:56;14.20;65.10
49124;DHT22;48506;48.202;16.274;2022-12-28T13:25:23;13.40;66.80
49124;DHT22;48506;48.202;16.274;2022-12-28T13:27:50;12.80;68.50
49124;DHT22;48506;48.202;16.274;2022-12-28T13:30:18;12.20;69.80
49124;DHT22;48506;48.202;16.274;2022-12-28T13:32:55;11.80;71.00
49124;DHT22;48506;48.202;16.274;2022-12-28T13:35:29;11.40;72.50
49124;DHT22;48506;48.202;16.274;2022-12-28T13:38:17;11.10;73.10
49124;DHT22;48506;48.202;16.274;2022-12-28T13:40:50;10.90;73.90
49124;DHT22;48506;48.202;16.274;2022-12-28T13:46:08;10.60;75.50
49124;DHT22;48506;48.202;16.274;2022-12-28T13:48:39;10.40;75.80
49124;DHT22;48506;48.202;16.274;2022-12-28T13:51:10;10.40;76.10
49124;DHT22;48506;48.202;16.274;2022-12-28T13:53:38;10.30;76.70
49124;DHT22;48506;48.202;16.274;2022-12-28T13:56:05;10.30;77.10
49124;DHT22;48506;48.202;16.274;2022-12-28T13:58:42;10.10;77.50
49124;DHT22;48506;48.202;16.274;2022-12-28T14:01:22;10.20;78.00
49124;DHT22;48506;48.202;16.274;2022-12-28T14:03:50;10.50;79.10
49124;DHT22;48506;48.202;16.274;2022-12-28T14:06:18;11.30;76.20
49124;DHT22;48506;48.202;16.274;2022-12-28T14:08:45;11.40;74.60
49124;DHT22;48506;48.202;16.274;2022-12-28T14:11:12;11.10;75.30
49124;DHT22;48506;48.202;16.274;2022-12-28T14:13:38;10.80;75.80
49124;DHT22;48506;48.202;16.274;2022-12-28T14:16:05;10.50;76.80
49124;DHT22;48506;48.202;16.274;2022-12-28T14:18:32;10.20;76.90
49124;DHT22;48506;48.202;16.274;2022-12-28T14:20:59;10.00;77.90
49124;DHT22;48506;48.202;16.274;2022-12-28T14:23:31;9.80;78.30
49124;DHT22;48506;48.202;16.274;2022-12-28T14:26:00;9.70;79.80
49124;DHT22;48506;48.202;16.274;2022-12-28T14:30:56;9.40;80.00
49124;DHT22;48506;48.202;16.274;2022-12-28T14:33:25;9.30;80.50
49124;DHT22;48506;48.202;16.274;2022-12-28T14:35:54;9.20;80.60
49124;DHT22;48506;48.202;16.274;2022-12-28T14:38:24;9.10;81.00
49124;DHT22;48506;48.202;16.274;2022-12-28T14:40:57;9.10;81.00
49124;DHT22;48506;48.202;16.274;2022-12-28T14:43:29;8.90;81.10
49124;DHT22;48506;48.202;16.274;2022-12-28T14:45:56;8.90;80.90
49124;DHT22;48506;48.202;16.274;2022-12-28T14:48:30;8.80;81.00
49124;DHT22;48506;48.202;16.274;2022-12-28T14:51:05;8.70;81.60
49124;DHT22;48506;48.202;16.274;2022-12-28T14:54:21;8.60;82.40
49124;DHT22;48506;48.202;16.274;2022-12-28T14:56:58;8.60;83.30
49124;DHT22;48506;48.202;16.274;2022-12-28T14:59:35;8.50;83.80
49124;DHT22;48506;48.202;16.274;2022-12-28T15:02:03;8.40;83.80
49124;DHT22;48506;48.202;16.274;2022-12-28T15:04:40;8.30;83.60
49124;DHT22;48506;48.202;16.274;2022-12-28T15:07:08;8.30;84.10
49124;DHT22;48506;48.202;16.274;2022-12-28T15:09:35;8.20;84.40
49124;DHT22;48506;48.202;16.274;2022-12-28T15:12:11;8.20;85.20
49124;DHT22;48506;48.202;16.274;2022-12-28T15:14:38;8.10;84.90
49124;DHT22;48506;48.202;16.274;2022-12-28T15:17:04;8.10;85.20
49124;DHT22;48506;48.202;16.274;2022-12-28T15:19:30;8.00;85.90
49124;DHT22;48506;48.202;16.274;2022-12-28T15:21:56;7.90;86.10
49124;DHT22;48506;48.202;16.274;2022-12-28T15:24:22;7.90;86.70
49124;DHT22;48506;48.202;16.274;2022-12-28T15:26:48;7.80;86.70
49124;DHT22;48506;48.202;16.274;2022-12-28T15:29:14;7.80;86.60
49124;DHT22;48506;48.202;16.274;2022-12-28T15:31:40;7.70;87.00
49124;DHT22;48506;48.202;16.274;2022-12-28T15:34:05;7.70;86.80
49124;DHT22;48506;48.202;16.274;2022-12-28T15:36:31;7.70;87.20
49124;DHT22;48506;48.202;16.274;2022-12-28T15:38:59;7.60;87.40
49124;DHT22;48506;48.202;16.274;2022-12-28T15:41:27;7.60;88.20
49124;DHT22;48506;48.202;16.274;2022-12-28T15:44:18;7.50;88.30
49124;DHT22;48506;48.202;16.274;2022-12-28T15:46:47;7.40;88.50
49124;DHT22;48506;48.202;16.274;2022-12-28T15:49:15;7.40;89.10
49124;DHT22;48506;48.202;16.274;2022-12-28T15:51:41;7.40;89.30
49124;DHT22;48506;48.202;16.274;2022-12-28T15:54:09;7.40;89.70
49124;DHT22;48506;48.202;16.274;2022-12-28T15:56:37;7.30;89.60
49124;DHT22;48506;48.202;16.274;2022-12-28T15:59:06;7.30;90.00
49124;DHT22;48506;48.202;16.274;2022-12-28T16:01:32;7.30;90.20
49124;DHT22;48506;48.202;16.274;2022-12-28T16:04:00;7.30;90.10
49124;DHT22;48506;48.202;16.274;2022-12-28T16:06:28;7.20;90.30
49124;DHT22;48506;48.202;16.274;2022-12-28T16:08:56;7.20;90.30
49124;DHT22;48506;48.202;16.274;2022-12-28T16:11:22;7.20;90.20
49124;DHT22;48506;48.202;16.274;2022-12-28T16:13:54;7.20;90.20
49124;DHT22;48506;48.202;16.274;2022-12-28T16:16:21;7.20;90.20
49124;DHT22;48506;48.202;16.274;2022-12-28T16:18:48;7.20;90.20
49124;DHT22;48506;48.202;16.274;2022-12-28T16:21:14;7.20;90.30
49124;DHT22;48506;48.202;16.274;2022-12-28T16:23:42;7.20;90.60
49124;DHT22;48506;48.202;16.274;2022-12-28T16:26:10;7.10;90.50
49124;DHT22;48506;48.202;16.274;2022-12-28T16:28:37;7.10;90.50
49124;DHT22;48506;48.202;16.274;2022-12-28T16:31:04;7.10;90.50
49124;DHT22;48506;48.202;16.274;2022-12-28T16:33:31;7.10;90.70
49124;DHT22;48506;48.202;16.274;2022-12-28T16:35:58;7.10;90.90
49124;DHT22;48506;48.202;16.274;2022-12-28T16:38:27;7.00;90.70
49124;DHT22;48506;48.202;16.274;2022-12-28T16:40:55;7.10;90.80
49124;DHT22;48506;48.202;16.274;2022-12-28T16:43:22;7.00;91.00
49124;DHT22;48506;48.202;16.274;2022-12-28T16:45:48;7.00;90.90
49124;DHT22;48506;48.202;16.274;2022-12-28T16:48:14;6.90;91.00
49124;DHT22;48506;48.202;16.274;2022-12-28T16:50:41;6.90;91.20
49124;DHT22;48506;48.202;16.274;2022-12-28T16:53:07;6.90;91.30
49124;DHT22;48506;48.202;16.274;2022-12-28T16:55:41;6.90;91.30
49124;DHT22;48506;48.202;16.274;2022-12-28T16:58:08;6.80;91.40
49124;DHT22;48506;48.202;16.274;2022-12-28T17:00:35;6.80;91.40
49124;DHT22;48506;48.202;16.274;2022-12-28T17:03:01;6.70;91.50
49124;DHT22;48506;48.202;16.274;2022-12-28T17:05:31;6.60;91.50
49124;DHT22;48506;48.202;16.274;2022-12-28T17:07:58;6.60;91.50
49124;DHT22;48506;48.202;16.274;2022-12-28T17:10:24;6.50;91.50
49124;DHT22;48506;48.202;16.274;2022-12-28T17:12:50;6.40;91.50
49124;DHT22;48506;48.202;16.274;2022-12-28T17:15:16;6.30;91.70
49124;DHT22;48506;48.202;16.274;2022-12-28T17:17:43;6.20;92.10
49124;DHT22;48506;48.202;16.274;2022-12-28T17:20:09;6.10;92.10
49124;DHT22;48506;48.202;16.274;2022-12-28T17:22:35;6.00;92.20
49124;DHT22;48506;48.202;16.274;2022-12-28T17:25:01;5.90;92.10
49124;DHT22;48506;48.202;16.274;2022-12-28T17:27:28;5.80;92.30
49124;DHT22;48506;48.202;16.274;2022-12-28T17:29:54;5.70;92.40
49124;DHT22;48506;48.202;16.274;2022-12-28T17:32:20;5.60;92.40
49124;DHT22;48506;48.202;16.274;2022-12-28T17:34:46;5.50;92.50
49124;DHT22;48506;48.202;16.274;2022-12-28T17:37:12;5.50;92.70